sensor_id;sensor_type;location;lat;lon;timestamp;temperature;humidity
3268;DHT22;1646;52.450;13.326;2022-11-20T00:04:47;1.80;99.90
3268;DHT22;1646;52.450;13.326;2022-11-20T00:09:46;1.80;99.90
3268;DHT22;1646;52.450;13.326;2022-11-20T00:14:45;1.80;99.90
3268;DHT22;1646;52.450;13.326;2022-11-20T00:19:43;1.90;99.90
3268;DHT22;1646;52.450;13.326;2022-11-20T00:24:41;1.90;99.90
3268;DHT22;1646;52.450;13.326;2022-11-20T00:29:39;2.00;99.90
3268;DHT22;1646;52.450;13.326;2022-11-20T00:34:38;2.00;99.90
3268;DHT22;1646;52.450;13.326;2022-11-20T00:39:36;1.90;99.90
3268;DHT22;1646;52.450;13.326;2022-11-20T00:44:34;1.80;99.90
3268;DHT22;1646;52.450;13.326;2022-11-20T00:49:33;1.90;99.90
3268;DHT22;1646;52.450;13.326;2022-11-20T00:54:32;1.90;99.90
3268;DHT22;1646;52.450;13.326;2022-11-20T00:59:30;1.90;99.90
3268;DHT22;1646;52.450;13.326;2022-11-20T01:04:28;2.00;99.90
3268;DHT22;1646;52.450;13.326;2022-11-20T01:09:26;2.00;99.90
3268;DHT22;1646;52.450;13.326;2022-11-20T01:14:26;2.00;99.90
3268;DHT22;1646;52.450;13.326;2022-11-20T01:19:24;1.90;99.90
3268;DHT22;1646;52.450;13.326;2022-11-20T01:24:22;1.80;99.90
3268;DHT22;1646;52.450;13.326;2022-11-20T01:29:22;1.80;99.90
3268;DHT22;1646;52.450;13.326;2022-11-20T01:34:22;1.90;99.90
3268;DHT22;1646;52.450;13.326;2022-11-20T01:39:22;1.80;99.90
3268;DHT22;1646;52.450;13.326;2022-11-20T01:44:39;1.90;99.90
3268;DHT22;1646;52.450;13.326;2022-11-20T01:49:45;1.90;99.90
3268;DHT22;1646;52.450;13.326;2022-11-20T01:54:48;1.90;99.90
3268;DHT22;1646;52.450;13.326;2022-11-20T01:59:50;1.80;99.90
3268;DHT22;1646;52.450;13.326;2022-11-20T02:04:51;1.80;99.90
3268;DHT22;1646;52.450;13.326;2022-11-20T02:09:51;1.90;99.90
3268;DHT22;1646;52.450;13.326;2022-11-20T02:14:54;1.90;99.90
3268;DHT22;1646;52.450;13.326;2022-11-20T02:19:54;1.70;99.90
3268;DHT22;1646;52.450;13.326;2022-11-20T02:24:53;1.70;99.90
3268;DHT22;1646;52.450;13.326;2022-11-20T02:29:53;1.70;99.90
3268;DHT22;1646;52.450;13.326;2022-11-20T02:34:53;1.70;99.90
3268;DHT22;1646;52.450;13.326;2022-11-20T02:39:53;1.80;99.90
3268;DHT22;1646;52.450;13.326;2022-11-20T02:44:51;1.70;99.90
3268;DHT22;1646;52.450;13.326;2022-11-20T02:49:49;1.60;99.90
3268;DHT22;1646;52.450;13.326;2022-11-20T02:54:47;1.50;99.90
3268;DHT22;1646;52.450;13.326;2022-11-20T02:59:46;1.50;99.90
3268;DHT22;1646;52.450;13.326;2022-11-20T03:04:44;1.40;99.90
3268;DHT22;1646;52.450;13.326;2022-11-20T03:09:42;1.50;99.90
3268;DHT22;1646;52.450;13.326;2022-11-20T03:14:41;1.50;99.90
3268;DHT22;1646;52.450;13.326;2022-11-20T03:19:40;1.30;99.90
3268;DHT22;1646;52.450;13.326;2022-11-20T03:24:38;1.40;99.90
3268;DHT22;1646;52.450;13.326;2022-11-20T03:29:36;1.30;99.90
3268;DHT22;1646;52.450;13.326;2022-11-20T03:34:34;1.30;99.90
3268;DHT22;1646;52.450;13.326;2022-11-20T03:39:34;1.20;99.90
3268;DHT22;1646;52.450;13.326;2022-11-20T03:44:32;1.20;99.90
3268;DHT22;1646;52.450;13.326;2022-11-20T03:49:30;1.30;99.90
3268;DHT22;1646;52.450;13.326;2022-11-20T03:54:28;1.40;99.90
3268;DHT22;1646;52.450;13.326;2022-11-20T03:59:27;1.40;99.90
3268;DHT22;1646;52.450;13.326;2022-11-20T04:04:25;1.40;99.90
3268;DHT22;1646;52.450;13.326;2022-11-20T04:09:24;1.40;99.90
3268;DHT22;1646;52.450;13.326;2022-11-20T04:14:22;1.20;99.90
3268;DHT22;1646;52.450;13.326;2022-11-20T04:19:21;1.10;99.90
3268;DHT22;1646;52.450;13.326;2022-11-20T04:24:20;1.10;99.90
3268;DHT22;1646;52.450;13.326;2022-11-20T04:29:18;1.20;99.90
3268;DHT22;1646;52.450;13.326;2022-11-20T04:34:16;1.10;99.90
3268;DHT22;1646;52.450;13.326;2022-11-20T04:39:16;1.20;99.90
3268;DHT22;1646;52.450;13.326;2022-11-20T04:44:14;1.20;99.90
3268;DHT22;1646;52.450;13.326;2022-11-20T04:49:12;1.30;99.90
3268;DHT22;1646;52.450;13.326;2022-11-20T04:54:11;1.30;99.90
3268;DHT22;1646;52.450;13.326;2022-11-20T04:59:10;1.40;99.90
3268;DHT22;1646;52.450;13.326;2022-11-20T05:04:08;1.40;99.90
3268;DHT22;1646;52.450;13.326;2022-11-20T05:09:07;1.30;99.90
3268;DHT22;1646;52.450;13.326;2022-11-20T05:14:05;1.30;99.90
3268;DHT22;1646;52.450;13.326;2022-11-20T05:19:04;1.30;99.90
3268;DHT22;1646;52.450;13.326;2022-11-20T05:24:02;1.40;99.90
3268;DHT22;1646;52.450;13.326;2022-11-20T05:29:01;1.50;99.90
3268;DHT22;1646;52.450;13.326;2022-11-20T05:33:59;1.60;99.90
3268;DHT22;1646;52.450;13.326;2022-11-20T05:38:59;1.60;99.90
3268;DHT22;1646;52.450;13.326;2022-11-20T05:43:58;1.60;99.90
3268;DHT22;1646;52.450;13.326;2022-11-20T05:48:57;1.60;99.90
3268;DHT22;1646;52.450;13.326;2022-11-20T05:53:56;1.50;99.90
3268;DHT22;1646;52.450;13.326;2022-11-20T05:58:56;1.40;99.90
3268;DHT22;1646;52.450;13.326;2022-11-20T06:03:54;1.40;99.90
3268;DHT22;1646;52.450;13.326;2022-11-20T06:08:52;1.50;99.90
3268;DHT22;1646;52.450;13.326;2022-11-20T06:13:51;1.50;99.90
3268;DHT22;1646;52.450;13.326;2022-11-20T06:18:50;1.50;99.90
3268;DHT22;1646;52.450;13.326;2022-11-20T06:23:49;1.50;99.90
3268;DHT22;1646;52.450;13.326;2022-11-20T06:28:48;1.50;99.90
3268;DHT22;1646;52.450;13.326;2022-11-20T06:33:46;1.50;99.90
3268;DHT22;1646;52.450;13.326;2022-11-20T06:38:46;1.50;99.90
3268;DHT22;1646;52.450;13.326;2022-11-20T06:43:44;1.40;99.90
3268;DHT22;1646;52.450;13.326;2022-11-20T06:48:43;1.50;99.90
3268;DHT22;1646;52.450;13.326;2022-11-20T06:53:42;1.40;99.90
3268;DHT22;1646;52.450;13.326;2022-11-20T06:58:41;1.50;99.90
3268;DHT22;1646;52.450;13.326;2022-11-20T07:03:40;1.40;99.90
3268;DHT22;1646;52.450;13.326;2022-11-20T07:08:38;1.30;99.90
3268;DHT22;1646;52.450;13.326;2022-11-20T07:13:36;1.20;99.90
3268;DHT22;1646;52.450;13.326;2022-11-20T07:18:36;1.10;99.90
3268;DHT22;1646;52.450;13.326;2022-11-20T07:23:35;1.00;99.90
3268;DHT22;1646;52.450;13.326;2022-11-20T07:28:33;1.00;99.90
3268;DHT22;1646;52.450;13.326;2022-11-20T07:33:31;1.10;99.90
3268;DHT22;1646;52.450;13.326;2022-11-20T07:38:31;0.90;99.90
3268;DHT22;1646;52.450;13.326;2022-11-20T07:43:29;0.80;99.90
3268;DHT22;1646;52.450;13.326;2022-11-20T07:48:32;0.90;99.90
3268;DHT22;1646;52.450;13.326;2022-11-20T07:53:32;1.10;99.90
3268;DHT22;1646;52.450;13.326;2022-11-20T07:58:30;1.20;99.90
3268;DHT22;1646;52.450;13.326;2022-11-20T08:03:29;1.30;99.90
3268;DHT22;1646;52.450;13.326;2022-11-20T08:08:28;1.40;99.90
3268;DHT22;1646;52.450;13.326;2022-11-20T08:13:31;1.40;99.90
3268;DHT22;1646;52.450;13.326;2022-11-20T08:18:49;1.40;99.90
3268;DHT22;1646;52.450;13.326;2022-11-20T08:23:47;1.50;99.90
3268;DHT22;1646;52.450;13.326;2022-11-20T08:28:46;1.40;99.90
3268;DHT22;1646;52.450;13.326;2022-11-20T08:33:44;1.50;99.90
3268;DHT22;1646;52.450;13.326;2022-11-20T08:38:46;1.50;99.90
3268;DHT22;1646;52.450;13.326;2022-11-20T08:43:46;1.50;99.90
3268;DHT22;1646;52.450;13.326;2022-11-20T08:48:44;1.60;99.90
3268;DHT22;1646;52.450;13.326;2022-11-20T08:53:42;1.60;99.90
3268;DHT22;1646;52.450;13.326;2022-11-20T08:58:40;1.50;99.90
3268;DHT22;1646;52.450;13.326;2022-11-20T09:04:00;1.50;99.90
3268;DHT22;1646;52.450;13.326;2022-11-20T09:08:58;1.40;99.90
3268;DHT22;1646;52.450;13.326;2022-11-20T09:14:02;1.50;99.90
3268;DHT22;1646;52.450;13.326;2022-11-20T09:19:02;1.50;99.90
3268;DHT22;1646;52.450;13.326;2022-11-20T09:24:20;1.50;99.90
3268;DHT22;1646;52.450;13.326;2022-11-20T09:29:18;1.60;99.90
3268;DHT22;1646;52.450;13.326;2022-11-20T09:34:18;1.60;99.90
3268;DHT22;1646;52.450;13.326;2022-11-20T09:39:16;1.50;99.90
3268;DHT22;1646;52.450;13.326;2022-11-20T09:44:30;1.50;99.90
3268;DHT22;1646;52.450;13.326;2022-11-20T09:49:52;1.60;99.90
3268;DHT22;1646;52.450;13.326;2022-11-20T09:54:55;1.60;99.90
3268;DHT22;1646;52.450;13.326;2022-11-20T09:59:56;1.70;99.90
3268;DHT22;1646;52.450;13.326;2022-11-20T10:05:03;1.80;99.90
3268;DHT22;1646;52.450;13.326;2022-11-20T10:10:02;1.80;99.90
3268;DHT22;1646;52.450;13.326;2022-11-20T10:15:10;1.70;99.90
3268;DHT22;1646;52.450;13.326;2022-11-20T10:20:17;1.70;99.90
3268;DHT22;1646;52.450;13.326;2022-11-20T10:25:19;1.60;99.90
3268;DHT22;1646;52.450;13.326;2022-11-20T10:30:19;1.70;99.90
3268;DHT22;1646;52.450;13.326;2022-11-20T10:35:23;1.90;99.90
3268;DHT22;1646;52.450;13.326;2022-11-20T10:40:29;1.80;99.90
3268;DHT22;1646;52.450;13.326;2022-11-20T10:45:39;1.90;99.90
3268;DHT22;1646;52.450;13.326;2022-11-20T10:50:52;2.00;99.90
3268;DHT22;1646;52.450;13.326;2022-11-20T10:55:57;2.10;99.90
3268;DHT22;1646;52.450;13.326;2022-11-20T11:01:03;2.00;99.90
3268;DHT22;1646;52.450;13.326;2022-11-20T11:06:07;2.10;99.90
3268;DHT22;1646;52.450;13.326;2022-11-20T11:11:18;2.10;99.90
3268;DHT22;1646;52.450;13.326;2022-11-20T11:16:21;2.20;99.90
3268;DHT22;1646;52.450;13.326;2022-11-20T11:21:24;2.30;99.90
3268;DHT22;1646;52.450;13.326;2022-11-20T11:26:24;3.00;99.90
3268;DHT22;1646;52.450;13.326;2022-11-20T11:31:24;4.20;99.90
3268;DHT22;1646;52.450;13.326;2022-11-20T11:36:24;4.40;99.90
3268;DHT22;1646;52.450;13.326;2022-11-20T11:41:25;4.10;99.90
3268;DHT22;1646;52.450;13.326;2022-11-20T11:46:30;3.50;99.90
3268;DHT22;1646;52.450;13.326;2022-11-20T11:51:34;3.40;99.90
3268;DHT22;1646;52.450;13.326;2022-11-20T11:56:34;3.30;99.90
3268;DHT22;1646;52.450;13.326;2022-11-20T12:01:35;3.30;99.90
3268;DHT22;1646;52.450;13.326;2022-11-20T12:06:39;3.30;99.90
3268;DHT22;1646;52.450;13.326;2022-11-20T12:11:45;3.50;99.90
3268;DHT22;1646;52.450;13.326;2022-11-20T12:16:44;3.60;99.90
3268;DHT22;1646;52.450;13.326;2022-11-20T12:21:52;3.60;99.90
3268;DHT22;1646;52.450;13.326;2022-11-20T12:27:06;3.50;99.90
3268;DHT22;1646;52.450;13.326;2022-11-20T12:32:28;3.50;99.90
3268;DHT22;1646;52.450;13.326;2022-11-20T12:37:37;3.50;99.90
3268;DHT22;1646;52.450;13.326;2022-11-20T12:42:49;3.60;99.90
3268;DHT22;1646;52.450;13.326;2022-11-20T12:53:51;3.10;99.90
3268;DHT22;1646;52.450;13.326;2022-11-20T12:59:13;2.80;99.90
3268;DHT22;1646;52.450;13.326;2022-11-20T13:04:25;2.90;99.90
3268;DHT22;1646;52.450;13.326;2022-11-20T13:09:26;3.00;99.90
3268;DHT22;1646;52.450;13.326;2022-11-20T13:14:31;3.20;99.90
3268;DHT22;1646;52.450;13.326;2022-11-20T13:19:32;2.90;99.90
3268;DHT22;1646;52.450;13.326;2022-11-20T13:24:32;2.80;99.90
3268;DHT22;1646;52.450;13.326;2022-11-20T13:29:30;2.60;99.90
3268;DHT22;1646;52.450;13.326;2022-11-20T13:34:28;2.50;99.90
3268;DHT22;1646;52.450;13.326;2022-11-20T13:39:28;2.60;99.90
3268;DHT22;1646;52.450;13.326;2022-11-20T13:44:33;2.60;99.90
3268;DHT22;1646;52.450;13.326;2022-11-20T13:49:38;2.60;99.90
3268;DHT22;1646;52.450;13.326;2022-11-20T13:54:53;2.60;99.90
3268;DHT22;1646;52.450;13.326;2022-11-20T13:59:57;2.60;99.90
3268;DHT22;1646;52.450;13.326;2022-11-20T14:04:58;2.60;99.90
3268;DHT22;1646;52.450;13.326;2022-11-20T14:09:57;2.60;99.90
3268;DHT22;1646;52.450;13.326;2022-11-20T14:14:58;2.60;99.90
3268;DHT22;1646;52.450;13.326;2022-11-20T14:19:59;2.70;99.90
3268;DHT22;1646;52.450;13.326;2022-11-20T14:25:05;2.70;99.90
3268;DHT22;1646;52.450;13.326;2022-11-20T14:30:11;2.70;99.90
3268;DHT22;1646;52.450;13.326;2022-11-20T14:35:14;2.70;99.90
3268;DHT22;1646;52.450;13.326;2022-11-20T14:40:27;2.70;99.90
3268;DHT22;1646;52.450;13.326;2022-11-20T14:45:27;2.70;99.90
3268;DHT22;1646;52.450;13.326;2022-11-20T14:50:28;2.80;99.90
3268;DHT22;1646;52.450;13.326;2022-11-20T14:55:31;2.80;99.90
3268;DHT22;1646;52.450;13.326;2022-11-20T15:00:33;2.70;99.90
3268;DHT22;1646;52.450;13.326;2022-11-20T15:05:45;2.70;99.90
3268;DHT22;1646;52.450;13.326;2022-11-20T15:10:47;2.60;99.90
3268;DHT22;1646;52.450;13.326;2022-11-20T15:15:48;2.60;99.90
3268;DHT22;1646;52.450;13.326;2022-11-20T15:20:47;2.50;99.90
3268;DHT22;1646;52.450;13.326;2022-11-20T15:25:46;2.40;99.90
3268;DHT22;1646;52.450;13.326;2022-11-20T15:30:47;2.40;99.90
3268;DHT22;1646;52.450;13.326;2022-11-20T15:35:46;2.30;99.90
3268;DHT22;1646;52.450;13.326;2022-11-20T15:40:44;2.20;99.90
3268;DHT22;1646;52.450;13.326;2022-11-20T15:45:44;2.30;99.90
3268;DHT22;1646;52.450;13.326;2022-11-20T15:50:50;2.30;99.90
3268;DHT22;1646;52.450;13.326;2022-11-20T15:55:50;2.30;99.90
3268;DHT22;1646;52.450;13.326;2022-11-20T16:00:48;2.20;99.90
3268;DHT22;1646;52.450;13.326;2022-11-20T16:05:47;2.20;99.90
3268;DHT22;1646;52.450;13.326;2022-11-20T16:10:46;2.20;99.90
3268;DHT22;1646;52.450;13.326;2022-11-20T16:15:44;2.10;99.90
3268;DHT22;1646;52.450;13.326;2022-11-20T16:20:50;1.90;99.90
3268;DHT22;1646;52.450;13.326;2022-11-20T16:25:49;1.90;99.90
3268;DHT22;1646;52.450;13.326;2022-11-20T16:30:48;2.00;99.90
3268;DHT22;1646;52.450;13.326;2022-11-20T16:35:47;2.10;99.90
3268;DHT22;1646;52.450;13.326;2022-11-20T16:40:45;2.10;99.90
3268;DHT22;1646;52.450;13.326;2022-11-20T16:45:44;2.10;99.90
3268;DHT22;1646;52.450;13.326;2022-11-20T16:50:48;2.20;99.90
3268;DHT22;1646;52.450;13.326;2022-11-20T16:55:47;2.20;99.90
3268;DHT22;1646;52.450;13.326;2022-11-20T17:00:45;2.00;99.90
3268;DHT22;1646;52.450;13.326;2022-11-20T17:05:49;2.00;99.90
3268;DHT22;1646;52.450;13.326;2022-11-20T17:10:47;2.10;99.90
3268;DHT22;1646;52.450;13.326;2022-11-20T17:15:45;2.20;99.90
3268;DHT22;1646;52.450;13.326;2022-11-20T17:20:52;2.20;99.90
3268;DHT22;1646;52.450;13.326;2022-11-20T17:25:50;2.30;99.90
3268;DHT22;1646;52.450;13.326;2022-11-20T17:30:48;2.20;99.90
3268;DHT22;1646;52.450;13.326;2022-11-20T17:35:46;2.20;99.90
3268;DHT22;1646;52.450;13.326;2022-11-20T17:40:45;2.20;99.90
3268;DHT22;1646;52.450;13.326;2022-11-20T17:45:44;2.30;99.90
3268;DHT22;1646;52.450;13.326;2022-11-20T17:50:42;2.30;99.90
3268;DHT22;1646;52.450;13.326;2022-11-20T17:55:40;2.20;99.90
3268;DHT22;1646;52.450;13.326;2022-11-20T18:01:03;2.10;99.90
3268;DHT22;1646;52.450;13.326;2022-11-20T18:06:08;2.00;99.90
3268;DHT22;1646;52.450;13.326;2022-11-20T18:11:10;2.00;99.90
3268;DHT22;1646;52.450;13.326;2022-11-20T18:16:10;1.90;99.90
3268;DHT22;1646;52.450;13.326;2022-11-20T18:21:08;1.90;99.90
3268;DHT22;1646;52.450;13.326;2022-11-20T18:26:06;1.90;99.90
3268;DHT22;1646;52.450;13.326;2022-11-20T18:31:05;1.90;99.90
3268;DHT22;1646;52.450;13.326;2022-11-20T18:36:12;1.80;99.90
3268;DHT22;1646;52.450;13.326;2022-11-20T18:41:11;1.80;99.90
3268;DHT22;1646;52.450;13.326;2022-11-20T18:46:30;1.80;99.90
3268;DHT22;1646;52.450;13.326;2022-11-20T18:51:29;1.80;99.90
3268;DHT22;1646;52.450;13.326;2022-11-20T18:56:27;1.80;99.90
3268;DHT22;1646;52.450;13.326;2022-11-20T19:01:26;1.70;99.90
3268;DHT22;1646;52.450;13.326;2022-11-20T19:06:24;1.70;99.90
3268;DHT22;1646;52.450;13.326;2022-11-20T19:11:24;1.70;99.90
3268;DHT22;1646;52.450;13.326;2022-11-20T19:16:22;1.70;99.90
3268;DHT22;1646;52.450;13.326;2022-11-20T19:21:22;1.70;99.90
3268;DHT22;1646;52.450;13.326;2022-11-20T19:26:21;1.70;99.90
3268;DHT22;1646;52.450;13.326;2022-11-20T19:31:22;1.60;99.90
3268;DHT22;1646;52.450;13.326;2022-11-20T19:36:24;1.50;99.90
3268;DHT22;1646;52.450;13.326;2022-11-20T19:41:23;1.40;99.90
3268;DHT22;1646;52.450;13.326;2022-11-20T19:46:27;1.50;99.90
3268;DHT22;1646;52.450;13.326;2022-11-20T19:51:27;1.40;99.90
3268;DHT22;1646;52.450;13.326;2022-11-20T19:56:27;1.50;99.90
3268;DHT22;1646;52.450;13.326;2022-11-20T20:01:29;1.50;99.90
3268;DHT22;1646;52.450;13.326;2022-11-20T20:06:28;1.50;99.90
3268;DHT22;1646;52.450;13.326;2022-11-20T20:11:27;1.60;99.90
3268;DHT22;1646;52.450;13.326;2022-11-20T20:16:27;1.60;99.90
3268;DHT22;1646;52.450;13.326;2022-11-20T20:21:25;1.60;99.90
3268;DHT22;1646;52.450;13.326;2022-11-20T20:26:24;1.50;99.90
3268;DHT22;1646;52.450;13.326;2022-11-20T20:31:24;1.40;99.90
3268;DHT22;1646;52.450;13.326;2022-11-20T20:36:24;1.40;99.90
3268;DHT22;1646;52.450;13.326;2022-11-20T20:41:23;1.50;99.90
3268;DHT22;1646;52.450;13.326;2022-11-20T20:46:21;1.30;99.90
3268;DHT22;1646;52.450;13.326;2022-11-20T20:51:19;1.50;99.90
3268;DHT22;1646;52.450;13.326;2022-11-20T20:56:19;1.30;99.90
3268;DHT22;1646;52.450;13.326;2022-11-20T21:01:18;1.30;99.90
3268;DHT22;1646;52.450;13.326;2022-11-20T21:06:16;1.30;99.90
3268;DHT22;1646;52.450;13.326;2022-11-20T21:11:16;1.30;99.90
3268;DHT22;1646;52.450;13.326;2022-11-20T21:16:17;1.30;99.90
3268;DHT22;1646;52.450;13.326;2022-11-20T21:21:16;1.30;99.90
3268;DHT22;1646;52.450;13.326;2022-11-20T21:26:32;1.20;99.90
3268;DHT22;1646;52.450;13.326;2022-11-20T21:31:32;1.10;99.90
3268;DHT22;1646;52.450;13.326;2022-11-20T21:36:30;1.10;99.90
3268;DHT22;1646;52.450;13.326;2022-11-20T21:41:29;0.90;99.90
3268;DHT22;1646;52.450;13.326;2022-11-20T21:46:27;0.60;99.90
3268;DHT22;1646;52.450;13.326;2022-11-20T21:51:27;0.60;99.90
3268;DHT22;1646;52.450;13.326;2022-11-20T21:56:26;0.60;99.90
3268;DHT22;1646;52.450;13.326;2022-11-20T22:01:26;0.70;99.90
3268;DHT22;1646;52.450;13.326;2022-11-20T22:06:28;0.80;99.90
3268;DHT22;1646;52.450;13.326;2022-11-20T22:11:28;0.80;99.90
3268;DHT22;1646;52.450;13.326;2022-11-20T22:16:26;0.90;99.90
3268;DHT22;1646;52.450;13.326;2022-11-20T22:21:25;0.90;99.90
3268;DHT22;1646;52.450;13.326;2022-11-20T22:26:26;0.70;99.90
3268;DHT22;1646;52.450;13.326;2022-11-20T22:31:25;0.60;99.90
3268;DHT22;1646;52.450;13.326;2022-11-20T22:36:25;0.60;99.90
3268;DHT22;1646;52.450;13.326;2022-11-20T22:41:26;0.70;99.90
3268;DHT22;1646;52.450;13.326;2022-11-20T22:46:26;0.70;99.90
3268;DHT22;1646;52.450;13.326;2022-11-20T22:51:26;0.70;99.90
3268;DHT22;1646;52.450;13.326;2022-11-20T22:56:26;0.80;99.90
3268;DHT22;1646;52.450;13.326;2022-11-20T23:01:25;0.80;99.90
3268;DHT22;1646;52.450;13.326;2022-11-20T23:06:23;0.80;99.90
3268;DHT22;1646;52.450;13.326;2022-11-20T23:11:23;0.70;99.90
3268;DHT22;1646;52.450;13.326;2022-11-20T23:16:24;0.60;99.90
3268;DHT22;1646;52.450;13.326;2022-11-20T23:21:23;0.60;99.90
3268;DHT22;1646;52.450;13.326;2022-11-20T23:26:23;0.50;99.90
3268;DHT22;1646;52.450;13.326;2022-11-20T23:31:23;0.50;99.90
3268;DHT22;1646;52.450;13.326;2022-11-20T23:36:21;0.30;99.90
3268;DHT22;1646;52.450;13.326;2022-11-20T23:41:19;0.30;99.90
3268;DHT22;1646;52.450;13.326;2022-11-20T23:46:17;0.20;99.90
3268;DHT22;1646;52.450;13.326;2022-11-20T23:51:16;0.10;99.90
3268;DHT22;1646;52.450;13.326;2022-11-20T23:56:15;0.30;99.90
